Time;durP1;ratioP1;P1;durP2;ratioP2;P2;SDS_P1;SDS_P2;PMS_P1;PMS_P2;Temp;Humidity;BMP_temperature;BMP_pressure;BME280_temperature;BME280_humidity;BME280_pressure;Samples;Min_cycle;Max_cycle;Signal;HPM_P1;HPM_P2
2022/08/03 00:01:05;;;;;;;6.78;5.40;;;21.20;99.90;;;;;;5061356;28;20674;-72
2022/08/03 00:03:33;;;;;;;5.63;5.13;;;21.20;99.90;;;;;;5074961;28;20213;-72
2022/08/03 00:05:59;;;;;;;11.95;6.93;;;21.10;99.90;;;;;;5073582;28;20218;-73
2022/08/03 00:08:26;;;;;;;8.52;5.78;;;21.10;99.90;;;;;;5056555;28;20201;-72
2022/08/03 00:10:53;;;;;;;6.57;5.40;;;21.10;99.90;;;;;;5071622;28;20216;-72
2022/08/03 00:13:20;;;;;;;5.50;5.00;;;21.00;99.90;;;;;;5075838;28;20216;-73
2022/08/03 00:15:47;;;;;;;6.63;5.93;;;21.00;99.90;;;;;;5069356;28;20206;-73
2022/08/03 00:18:15;;;;;;;7.60;5.72;;;21.00;99.90;;;;;;5060148;28;20212;-73
2022/08/03 00:20:42;;;;;;;9.80;5.88;;;21.00;99.90;;;;;;5064834;28;20236;-72
2022/08/03 00:23:08;;;;;;;14.57;7.25;;;21.00;99.90;;;;;;5067099;28;20322;-72
2022/08/03 00:25:36;;;;;;;9.95;6.85;;;20.90;99.90;;;;;;5054720;28;20221;-72
2022/08/03 00:28:02;;;;;;;11.07;5.90;;;20.90;99.90;;;;;;5074199;28;20213;-73
2022/08/03 00:30:29;;;;;;;10.90;6.80;;;20.90;99.90;;;;;;5072039;28;20197;-72
2022/08/03 00:32:56;;;;;;;9.77;8.60;;;20.90;99.90;;;;;;5052001;28;20225;-72
2022/08/03 00:35:25;;;;;;;7.65;6.35;;;20.90;99.90;;;;;;5074801;28;20205;-72
2022/08/03 00:37:52;;;;;;;6.75;6.03;;;20.90;99.90;;;;;;5072755;28;20205;-72
2022/08/03 00:40:19;;;;;;;8.90;6.20;;;20.80;99.90;;;;;;5074034;28;20209;-72
2022/08/03 00:42:47;;;;;;;7.38;5.93;;;20.80;99.90;;;;;;5072292;28;20547;-73
2022/08/03 00:45:14;;;;;;;6.47;5.55;;;20.80;99.90;;;;;;5074348;28;20213;-71
2022/08/03 00:47:41;;;;;;;7.93;6.97;;;20.80;99.90;;;;;;5054132;28;20575;-72
2022/08/03 00:50:08;;;;;;;8.88;7.25;;;20.80;99.90;;;;;;5064661;28;20232;-72
2022/08/03 00:52:37;;;;;;;8.65;6.65;;;20.80;99.90;;;;;;5074241;28;20229;-71
2022/08/03 00:55:04;;;;;;;7.47;5.80;;;20.70;99.90;;;;;;5063274;28;20209;-72
2022/08/03 00:57:32;;;;;;;7.40;6.13;;;20.70;99.90;;;;;;5064935;28;20213;-73
2022/08/03 00:59:59;;;;;;;8.90;6.28;;;20.70;99.90;;;;;;5074227;28;20220;-72
2022/08/03 01:02:26;;;;;;;6.85;6.15;;;20.70;99.90;;;;;;5053988;28;20206;-71
2022/08/03 01:04:53;;;;;;;6.72;6.13;;;20.70;99.90;;;;;;5072432;28;20209;-72
2022/08/03 01:07:28;;;;;;;7.05;6.20;;;20.60;99.90;;;;;;5073222;28;20212;-72
2022/08/03 01:10:02;;;;;;;6.28;5.68;;;20.70;99.90;;;;;;5069343;28;20217;-72
2022/08/03 01:12:36;;;;;;;6.85;6.00;;;20.60;99.90;;;;;;5065002;28;20316;-72
2022/08/03 01:15:12;;;;;;;7.75;5.85;;;20.60;99.90;;;;;;5071085;28;20216;-72
2022/08/03 01:17:44;;;;;;;6.35;5.70;;;20.60;99.90;;;;;;5062660;28;20201;-72
2022/08/03 01:20:14;;;;;;;7.10;6.40;;;20.50;99.90;;;;;;5059206;28;20245;-72
2022/08/03 01:22:55;;;;;;;7.43;6.72;;;20.50;99.90;;;;;;5061551;28;20197;-72
2022/08/03 01:25:48;;;;;;;6.35;5.75;;;20.50;99.90;;;;;;5070599;28;20233;-72
2022/08/03 01:28:38;;;;;;;8.25;6.70;;;20.50;99.90;;;;;;5070734;28;20581;-71
2022/08/03 01:31:10;;;;;;;8.23;6.45;;;20.50;99.90;;;;;;5052967;28;20202;-73
2022/08/03 01:33:42;;;;;;;6.65;6.05;;;20.40;99.90;;;;;;5068880;28;20213;-71
2022/08/03 01:36:13;;;;;;;8.05;6.50;;;20.40;99.90;;;;;;5074140;28;20201;-71
2022/08/03 01:38:44;;;;;;;6.85;6.15;;;20.40;99.90;;;;;;5070124;28;20205;-72
2022/08/03 01:41:14;;;;;;;7.15;6.00;;;20.40;99.90;;;;;;5059686;28;20209;-72
2022/08/03 01:43:43;;;;;;;8.88;6.88;;;20.40;99.90;;;;;;5074307;28;20197;-72
2022/08/03 01:46:12;;;;;;;6.53;5.90;;;20.30;99.90;;;;;;5058108;28;20248;-72
2022/08/03 01:48:41;;;;;;;7.78;6.88;;;20.30;99.90;;;;;;5059942;28;20206;-73
2022/08/03 01:51:09;;;;;;;8.70;6.40;;;20.20;99.90;;;;;;5044431;28;20209;-72
2022/08/03 01:53:37;;;;;;;9.48;6.75;;;20.20;99.90;;;;;;5077211;28;20221;-73
2022/08/03 01:56:06;;;;;;;8.40;6.72;;;20.20;99.90;;;;;;5063879;28;20201;-72
2022/08/03 01:58:34;;;;;;;12.02;7.45;;;20.20;99.90;;;;;;5074079;28;20212;-72
2022/08/03 02:01:02;;;;;;;10.15;7.40;;;20.20;99.90;;;;;;5073691;28;20568;-72
2022/08/03 02:03:33;;;;;;;9.80;6.85;;;20.20;99.90;;;;;;5054490;28;20205;-72
2022/08/03 02:06:01;;;;;;;10.40;6.88;;;20.10;99.90;;;;;;5078881;28;20201;-72
2022/08/03 02:08:30;;;;;;;8.27;7.15;;;20.10;99.90;;;;;;5076932;28;20680;-72
2022/08/03 02:10:58;;;;;;;7.70;6.88;;;20.10;99.90;;;;;;5062206;28;20274;-73
2022/08/03 02:13:28;;;;;;;7.45;6.28;;;20.10;99.90;;;;;;5063724;28;20217;-73
2022/08/03 02:15:56;;;;;;;10.65;6.95;;;20.10;99.90;;;;;;5077168;28;20228;-72
2022/08/03 02:18:25;;;;;;;8.38;7.40;;;20.10;99.90;;;;;;5057444;28;20544;-73
2022/08/03 02:20:54;;;;;;;9.65;7.70;;;20.00;99.90;;;;;;5062041;28;20615;-73
2022/08/03 02:23:21;;;;;;;8.05;7.25;;;20.00;99.90;;;;;;5064170;28;20198;-73
2022/08/03 02:25:52;;;;;;;8.65;7.63;;;20.00;99.90;;;;;;5077815;28;20232;-70
2022/08/03 02:28:22;;;;;;;9.38;7.13;;;20.00;99.90;;;;;;5067193;28;20210;-72
2022/08/03 02:30:54;;;;;;;9.07;7.70;;;20.00;99.90;;;;;;5071076;28;20213;-71
2022/08/03 02:33:26;;;;;;;8.73;7.93;;;20.00;99.90;;;;;;5068069;28;20227;-72
2022/08/03 02:35:57;;;;;;;9.30;8.10;;;20.00;99.90;;;;;;5058083;28;20204;-73
2022/08/03 02:38:28;;;;;;;9.10;7.68;;;20.00;99.90;;;;;;5077115;28;20208;-73
2022/08/03 02:40:57;;;;;;;12.25;7.65;;;19.90;99.90;;;;;;5074752;28;20665;-71
2022/08/03 02:43:25;;;;;;;7.65;6.88;;;20.00;99.90;;;;;;5070127;28;20228;-72
2022/08/03 02:45:53;;;;;;;7.40;6.65;;;20.00;99.90;;;;;;5075138;28;20214;-71
2022/08/03 02:48:24;;;;;;;10.77;7.55;;;19.90;99.90;;;;;;5070115;28;20217;-71
2022/08/03 02:50:54;;;;;;;7.18;6.45;;;19.90;99.90;;;;;;5070865;28;20212;-71
2022/08/03 02:53:23;;;;;;;8.43;7.03;;;19.90;99.90;;;;;;5065474;28;20229;-71
2022/08/03 02:55:50;;;;;;;8.48;7.22;;;19.90;99.90;;;;;;5062215;28;20206;-73
2022/08/03 02:58:20;;;;;;;9.18;7.65;;;20.00;99.90;;;;;;5062447;28;20209;-72
2022/08/03 03:00:48;;;;;;;8.25;6.65;;;19.90;99.90;;;;;;5062415;28;20210;-72
2022/08/03 03:03:15;;;;;;;7.35;6.55;;;19.90;99.90;;;;;;5071178;28;20212;-72
2022/08/03 03:05:43;;;;;;;9.73;7.10;;;20.00;99.90;;;;;;5076062;28;20540;-71
2022/08/03 03:08:13;;;;;;;10.05;7.68;;;19.90;99.90;;;;;;5069212;28;20201;-71
2022/08/03 03:10:40;;;;;;;8.27;7.47;;;20.00;99.90;;;;;;5072566;28;20205;-70
2022/08/03 03:13:08;;;;;;;11.30;10.05;;;20.00;99.90;;;;;;5059068;28;20316;-70
2022/08/03 03:15:36;;;;;;;10.25;8.02;;;20.00;99.90;;;;;;5069554;28;20209;-72
2022/08/03 03:18:05;;;;;;;10.13;7.50;;;20.00;99.90;;;;;;5056106;28;20218;-71
2022/08/03 03:20:34;;;;;;;9.07;7.38;;;20.00;99.90;;;;;;5075573;28;20259;-71
2022/08/03 03:23:02;;;;;;;10.48;7.30;;;20.00;99.90;;;;;;5074386;28;20205;-70
2022/08/03 03:25:31;;;;;;;9.85;7.28;;;20.00;99.90;;;;;;5062119;28;20237;-70
2022/08/03 03:27:59;;;;;;;10.60;7.75;;;20.10;99.90;;;;;;5062275;28;20218;-70
2022/08/03 03:30:26;;;;;;;9.00;7.50;;;20.10;99.90;;;;;;5069000;28;20559;-71
2022/08/03 03:32:53;;;;;;;8.80;7.90;;;20.10;99.90;;;;;;5070006;28;20590;-71
2022/08/03 03:35:20;;;;;;;8.13;7.32;;;20.10;99.90;;;;;;5075681;28;20209;-73
2022/08/03 03:37:47;;;;;;;10.10;7.78;;;20.20;99.90;;;;;;5048065;28;20215;-71
2022/08/03 03:40:14;;;;;;;9.65;7.78;;;20.20;99.90;;;;;;5076292;28;20205;-71
2022/08/03 03:42:42;;;;;;;8.05;7.00;;;20.20;99.90;;;;;;5067913;28;20206;-73
2022/08/03 03:45:10;;;;;;;8.38;7.35;;;20.30;99.90;;;;;;5059967;28;20206;-72
2022/08/03 03:47:37;;;;;;;8.63;7.53;;;20.30;99.90;;;;;;5054320;28;20205;-71
2022/08/03 03:50:05;;;;;;;10.38;7.95;;;20.40;99.90;;;;;;5066027;28;20213;-72
2022/08/03 03:52:33;;;;;;;8.35;7.50;;;20.40;99.90;;;;;;5074572;28;20225;-74
2022/08/03 03:55:00;;;;;;;11.38;8.07;;;20.40;99.90;;;;;;5057918;28;20225;-73
2022/08/03 03:57:28;;;;;;;9.15;7.63;;;20.50;99.90;;;;;;5058308;28;20689;-75
2022/08/03 03:59:56;;;;;;;9.43;7.60;;;20.50;99.90;;;;;;5056065;28;20263;-73
2022/08/03 04:02:23;;;;;;;8.88;7.50;;;20.60;99.90;;;;;;5067831;28;20239;-73
2022/08/03 04:13:16;;;;;;;8.77;7.88;;;20.90;99.90;;;;;;5069252;28;20216;-73
2022/08/03 04:15:46;;;;;;;8.25;7.43;;;20.90;99.90;;;;;;5053736;28;20203;-71
2022/08/03 04:18:15;;;;;;;9.65;8.43;;;21.00;99.90;;;;;;5061753;28;20205;-72
2022/08/03 04:20:46;;;;;;;12.95;8.45;;;21.10;99.90;;;;;;5074894;28;20717;-71
2022/08/03 04:23:13;;;;;;;9.30;7.07;;;21.10;99.90;;;;;;5072102;28;20198;-71
2022/08/03 04:25:41;;;;;;;8.90;8.00;;;21.20;99.90;;;;;;5074534;28;20224;-71
2022/08/03 04:28:09;;;;;;;13.73;8.15;;;21.20;99.90;;;;;;5074489;28;20209;-72
2022/08/03 04:30:39;;;;;;;11.45;8.30;;;21.20;99.90;;;;;;5050378;28;20206;-72
2022/08/03 04:33:08;;;;;;;10.40;8.25;;;21.40;99.90;;;;;;5044117;28;20300;-71
2022/08/03 04:35:36;;;;;;;10.85;9.10;;;21.40;99.90;;;;;;5071739;28;20227;-72
2022/08/03 04:38:06;;;;;;;12.30;9.00;;;21.60;99.90;;;;;;5062455;28;20739;-72
2022/08/03 04:40:34;;;;;;;13.35;8.85;;;21.60;99.90;;;;;;5073108;28;20209;-71
2022/08/03 04:43:02;;;;;;;12.50;9.45;;;21.70;99.90;;;;;;5074160;28;20668;-72
2022/08/03 04:45:31;;;;;;;11.13;8.48;;;21.80;99.90;;;;;;5066651;28;20229;-72
2022/08/03 04:47:59;;;;;;;16.25;9.07;;;21.90;99.90;;;;;;5070044;28;20220;-72
2022/08/03 04:50:27;;;;;;;12.50;8.75;;;22.00;99.90;;;;;;5062361;28;20217;-72
2022/08/03 04:52:55;;;;;;;18.23;10.15;;;22.00;99.90;;;;;;5074058;28;20279;-73
2022/08/03 04:55:28;;;;;;;13.38;10.27;;;21.90;99.90;;;;;;5061493;28;20208;-72
2022/08/03 04:57:55;;;;;;;15.75;8.50;;;22.00;99.90;;;;;;5058414;28;20522;-71
2022/08/03 05:00:22;;;;;;;11.70;8.65;;;22.00;99.90;;;;;;5069499;28;20205;-72
2022/08/03 05:02:49;;;;;;;10.68;9.57;;;22.00;99.90;;;;;;5074499;28;20209;-71
2022/08/03 05:05:16;;;;;;;10.30;9.20;;;22.00;99.90;;;;;;5063896;28;20206;-71
2022/08/03 05:07:44;;;;;;;10.35;8.20;;;22.00;99.90;;;;;;5068526;28;20209;-72
2022/08/03 05:10:12;;;;;;;14.88;9.35;;;22.00;99.90;;;;;;5068725;28;20213;-71
2022/08/03 05:12:39;;;;;;;10.63;9.02;;;22.10;99.90;;;;;;5066687;28;20210;-71
2022/08/03 05:15:07;;;;;;;14.60;8.50;;;22.10;99.90;;;;;;5067766;28;20202;-73
2022/08/03 05:17:34;;;;;;;13.32;9.43;;;22.10;99.90;;;;;;5057517;28;20210;-72
2022/08/03 05:20:02;;;;;;;10.85;9.07;;;22.10;99.90;;;;;;5044522;28;20248;-73
2022/08/03 05:22:29;;;;;;;10.27;9.10;;;22.10;99.90;;;;;;5038590;28;20213;-72
2022/08/03 05:24:57;;;;;;;11.60;9.13;;;22.20;99.90;;;;;;5066473;28;20235;-74
2022/08/03 05:27:25;;;;;;;14.05;9.85;;;22.30;99.90;;;;;;5065260;28;20215;-73
2022/08/03 05:29:52;;;;;;;14.77;9.57;;;22.30;99.90;;;;;;5075810;28;20213;-73
2022/08/03 05:32:19;;;;;;;12.35;9.70;;;22.30;99.90;;;;;;5059350;28;20202;-74
2022/08/03 05:34:46;;;;;;;15.70;10.10;;;22.40;99.90;;;;;;5078483;28;20232;-74
2022/08/03 05:37:13;;;;;;;11.50;10.30;;;22.50;99.90;;;;;;5053861;28;20205;-73
2022/08/03 05:39:40;;;;;;;14.68;10.15;;;22.60;99.90;;;;;;5054218;28;20213;-73
2022/08/03 05:42:09;;;;;;;11.43;10.18;;;22.80;99.90;;;;;;5077492;28;20209;-74
2022/08/03 05:44:37;;;;;;;14.40;10.10;;;22.80;99.90;;;;;;5044594;28;20680;-73
2022/08/03 05:47:04;;;;;;;11.30;9.98;;;22.80;99.90;;;;;;5064436;28;20310;-73
2022/08/03 05:49:31;;;;;;;12.13;9.95;;;22.90;99.90;;;;;;5062575;28;20206;-71
2022/08/03 05:51:58;;;;;;;15.57;9.70;;;22.90;99.90;;;;;;5072691;28;20438;-70
2022/08/03 05:54:24;;;;;;;24.98;13.70;;;22.90;99.90;;;;;;5036285;28;20230;-70
2022/08/03 05:56:51;;;;;;;55.80;26.60;;;22.90;99.90;;;;;;5049573;28;20212;-72
2022/08/03 05:59:20;;;;;;;38.08;19.48;;;22.80;99.90;;;;;;5045563;28;20207;-71
2022/08/03 06:01:47;;;;;;;60.63;30.15;;;22.80;99.90;;;;;;5043504;28;20202;-70
2022/08/03 06:04:14;;;;;;;60.85;30.27;;;22.80;99.90;;;;;;5048674;28;20208;-71
2022/08/03 06:06:41;;;;;;;39.13;21.38;;;22.80;99.90;;;;;;5052059;28;20562;-71
2022/08/03 06:09:09;;;;;;;22.50;14.38;;;22.70;99.90;;;;;;5047679;28;20688;-70
2022/08/03 06:11:36;;;;;;;26.55;15.10;;;22.70;99.90;;;;;;5050420;28;20654;-74
2022/08/03 06:14:03;;;;;;;15.85;11.57;;;22.70;99.90;;;;;;5053970;28;20229;-73
2022/08/03 06:16:32;;;;;;;18.25;12.57;;;22.70;99.90;;;;;;5061952;28;20210;-74
2022/08/03 06:18:59;;;;;;;18.08;12.43;;;22.80;99.90;;;;;;5052106;28;20640;-69
2022/08/03 06:21:25;;;;;;;14.68;12.23;;;22.80;99.90;;;;;;5047710;28;20202;-68
2022/08/03 06:23:52;;;;;;;19.17;13.85;;;22.80;99.90;;;;;;5059319;28;20207;-68
2022/08/03 06:26:19;;;;;;;16.25;12.60;;;22.80;99.90;;;;;;5051832;28;20686;-69
2022/08/03 06:28:46;;;;;;;15.90;12.30;;;22.90;99.90;;;;;;5052306;28;20248;-70
2022/08/03 06:31:12;;;;;;;15.38;12.38;;;22.90;99.90;;;;;;5041550;28;20199;-68
2022/08/03 06:33:41;;;;;;;14.48;12.55;;;22.90;99.90;;;;;;5058383;28;20233;-68
2022/08/03 06:36:07;;;;;;;16.63;12.10;;;22.90;99.90;;;;;;5045845;28;20677;-69
2022/08/03 06:38:34;;;;;;;19.33;13.43;;;22.90;99.90;;;;;;5045329;28;20249;-69
2022/08/03 06:41:01;;;;;;;19.75;13.75;;;22.90;99.90;;;;;;5048225;28;20213;-68
2022/08/03 06:43:28;;;;;;;19.23;13.68;;;22.90;99.90;;;;;;5053695;28;20693;-68
2022/08/03 06:45:54;;;;;;;18.30;13.55;;;22.90;99.90;;;;;;5050546;28;20212;-67
2022/08/03 06:48:22;;;;;;;23.25;13.38;;;22.90;99.90;;;;;;5047761;28;20451;-69
2022/08/03 06:50:50;;;;;;;18.90;13.82;;;22.90;99.90;;;;;;5050583;28;20244;-69
2022/08/03 06:53:17;;;;;;;18.85;12.77;;;22.90;99.90;;;;;;5052393;28;20202;-70
2022/08/03 06:55:43;;;;;;;16.17;12.43;;;22.90;99.90;;;;;;5054714;28;20213;-67
2022/08/03 06:58:10;;;;;;;22.95;14.07;;;22.90;99.90;;;;;;5063777;28;20205;-69
2022/08/03 07:00:37;;;;;;;14.13;12.57;;;23.00;99.90;;;;;;5050144;28;20198;-68
2022/08/03 07:03:04;;;;;;;15.73;12.05;;;23.10;99.90;;;;;;5044471;28;20217;-68
2022/08/03 07:05:32;;;;;;;20.23;12.20;;;23.20;99.90;;;;;;5040380;28;20213;-71
2022/08/03 07:08:01;;;;;;;17.80;11.27;;;23.30;99.90;;;;;;5045738;28;20214;-68
2022/08/03 07:10:28;;;;;;;18.63;13.10;;;23.50;99.90;;;;;;5050527;28;20210;-69
2022/08/03 07:12:55;;;;;;;13.23;11.43;;;23.60;99.90;;;;;;5044943;28;20297;-69
2022/08/03 07:15:22;;;;;;;18.17;12.35;;;23.80;99.90;;;;;;5049739;28;20226;-69
2022/08/03 07:17:49;;;;;;;13.90;11.77;;;24.00;99.90;;;;;;5049740;28;20210;-67
2022/08/03 07:20:17;;;;;;;17.95;12.20;;;24.10;99.90;;;;;;5054482;28;20269;-67
2022/08/03 07:22:43;;;;;;;16.65;13.02;;;24.30;99.90;;;;;;5052654;28;20221;-67
2022/08/03 07:25:11;;;;;;;19.88;12.50;;;24.60;99.90;;;;;;5054980;28;20572;-68
2022/08/03 07:27:38;;;;;;;16.42;12.50;;;24.70;99.90;;;;;;5055103;28;20567;-67
2022/08/03 07:30:08;;;;;;;19.17;14.00;;;24.90;99.90;;;;;;5045966;28;20655;-68
2022/08/03 07:32:35;;;;;;;16.40;12.23;;;25.10;99.90;;;;;;5057358;28;20197;-66
2022/08/03 07:35:02;;;;;;;15.55;12.68;;;25.30;99.90;;;;;;5050943;28;20717;-67
2022/08/03 07:37:29;;;;;;;16.75;12.18;;;25.50;99.90;;;;;;5058025;28;20232;-68
2022/08/03 07:39:57;;;;;;;13.88;12.20;;;25.60;99.90;;;;;;5069579;28;20684;-68
2022/08/03 07:42:25;;;;;;;24.83;12.73;;;25.70;99.90;;;;;;5045626;28;20199;-67
2022/08/03 07:44:52;;;;;;;14.55;11.93;;;25.80;99.90;;;;;;5042615;28;20206;-66
2022/08/03 07:47:19;;;;;;;14.93;10.98;;;25.90;99.90;;;;;;5039481;28;20210;-67
2022/08/03 07:49:46;;;;;;;15.88;10.38;;;26.00;99.90;;;;;;5064691;28;20334;-68
2022/08/03 07:54:57;;;;;;;13.63;11.23;;;26.10;99.90;;;;;;5074442;28;20220;-67
2022/08/03 07:57:25;;;;;;;13.13;9.60;;;26.30;99.90;;;;;;5048126;28;20640;-66
2022/08/03 07:59:51;;;;;;;13.55;9.50;;;26.50;99.90;;;;;;5057423;28;20201;-65
2022/08/03 08:02:18;;;;;;;16.88;8.77;;;26.60;99.90;;;;;;5065430;28;20209;-67
2022/08/03 08:04:45;;;;;;;14.98;10.00;;;26.80;99.90;;;;;;5074760;28;20204;-65
2022/08/03 08:07:12;;;;;;;14.77;8.02;;;27.00;99.90;;;;;;5063557;28;20572;-67
2022/08/03 08:09:39;;;;;;;9.05;7.45;;;27.20;99.90;;;;;;5046925;28;20210;-67
2022/08/03 08:12:07;;;;;;;13.55;8.30;;;27.50;99.90;;;;;;5074182;28;20206;-67
2022/08/03 08:14:35;;;;;;;10.57;7.88;;;27.80;99.90;;;;;;5073552;28;20260;-66
2022/08/03 08:17:02;;;;;;;9.07;7.18;;;28.00;99.90;;;;;;5066599;28;20210;-66
2022/08/03 08:19:29;;;;;;;8.20;6.03;;;28.20;99.90;;;;;;5066773;28;20713;-67
2022/08/03 08:21:56;;;;;;;7.20;5.30;;;28.30;99.90;;;;;;5073470;28;20661;-67
2022/08/03 08:24:22;;;;;;;9.10;5.78;;;28.50;99.90;;;;;;5073672;28;20212;-67
2022/08/03 08:26:49;;;;;;;5.85;5.00;;;28.60;99.90;;;;;;5058967;28;20243;-66
2022/08/03 08:29:16;;;;;;;6.28;4.00;;;28.70;99.90;;;;;;5063495;28;20205;-66
2022/08/03 08:31:44;;;;;;;5.97;4.00;;;28.80;99.70;;;;;;5051662;28;20213;-67
2022/08/03 08:34:10;;;;;;;4.45;3.30;;;28.90;97.80;;;;;;5071824;28;20221;-67
2022/08/03 08:36:37;;;;;;;4.18;3.67;;;29.00;96.70;;;;;;5073890;28;20572;-66
2022/08/03 08:39:04;;;;;;;5.10;2.90;;;29.20;96.40;;;;;;5073376;28;20232;-66
2022/08/03 08:41:33;;;;;;;3.50;3.20;;;29.30;95.30;;;;;;5062027;28;20649;-64
2022/08/03 08:44:00;;;;;;;4.40;3.15;;;29.40;94.20;;;;;;5067443;28;20223;-66
2022/08/03 08:46:29;;;;;;;4.72;2.85;;;29.50;93.40;;;;;;5050875;28;20202;-67
2022/08/03 08:48:57;;;;;;;4.65;2.95;;;29.70;92.50;;;;;;5048098;28;20202;-66
2022/08/03 08:51:29;;;;;;;4.90;4.10;;;29.90;92.00;;;;;;5051827;28;20205;-67
2022/08/03 08:54:01;;;;;;;6.57;3.58;;;29.90;90.90;;;;;;5052693;28;20588;-66
2022/08/03 08:56:29;;;;;;;5.82;3.40;;;29.90;90.90;;;;;;5048234;28;20234;-66
2022/08/03 08:58:59;;;;;;;5.93;3.67;;;30.00;90.30;;;;;;5049111;28;20594;-66
2022/08/03 09:01:26;;;;;;;4.57;3.40;;;30.00;90.30;;;;;;5053233;28;20206;-66
2022/08/03 09:03:54;;;;;;;10.15;4.45;;;29.90;89.70;;;;;;5044232;28;20206;-66
2022/08/03 09:06:22;;;;;;;7.35;4.25;;;30.10;89.60;;;;;;5053534;28;20210;-65
2022/08/03 09:08:49;;;;;;;3.85;3.15;;;30.40;89.30;;;;;;5053635;28;20205;-67
2022/08/03 09:11:16;;;;;;;4.10;3.30;;;30.50;87.40;;;;;;5053417;28;20216;-66
2022/08/03 09:13:43;;;;;;;4.55;3.50;;;30.60;86.80;;;;;;5050914;28;20210;-67
2022/08/03 09:16:14;;;;;;;7.03;3.13;;;30.60;84.80;;;;;;5047203;28;20232;-66
2022/08/03 09:18:42;;;;;;;4.20;3.15;;;30.40;83.90;;;;;;5048228;28;20231;-67
2022/08/03 09:21:17;;;;;;;5.10;3.65;;;30.30;84.20;;;;;;5053076;28;20357;-66
2022/08/03 09:23:47;;;;;;;8.95;3.42;;;30.40;83.40;;;;;;5048864;28;20275;-65
2022/08/03 09:26:21;;;;;;;6.90;3.30;;;30.30;83.40;;;;;;5040309;28;20231;-66
2022/08/03 09:28:55;;;;;;;4.13;2.70;;;30.30;83.40;;;;;;5051106;28;20204;-66
2022/08/03 09:31:30;;;;;;;3.28;3.00;;;30.30;83.50;;;;;;5044155;28;20244;-66
2022/08/03 09:33:59;;;;;;;3.92;3.50;;;30.20;83.30;;;;;;5063738;28;20205;-67
2022/08/03 09:36:40;;;;;;;4.40;3.30;;;30.10;83.30;;;;;;5073087;28;20217;-66
2022/08/03 09:39:10;;;;;;;7.93;3.88;;;30.00;83.90;;;;;;5073938;28;20200;-67
2022/08/03 09:41:38;;;;;;;5.90;3.75;;;29.90;84.70;;;;;;5072168;28;20617;-67
2022/08/03 09:44:05;;;;;;;4.43;3.13;;;30.00;84.60;;;;;;5042645;28;20220;-66
2022/08/03 09:46:33;;;;;;;3.33;2.75;;;30.30;84.20;;;;;;5052949;28;20253;-66
2022/08/03 09:49:10;;;;;;;3.40;3.10;;;30.60;82.20;;;;;;5055848;28;20663;-66
2022/08/03 09:51:37;;;;;;;4.78;2.63;;;30.80;79.80;;;;;;5048144;28;20625;-66
2022/08/03 09:54:05;;;;;;;3.72;2.67;;;31.00;78.50;;;;;;5072285;28;20664;-67
2022/08/03 09:56:44;;;;;;;3.88;2.90;;;31.20;79.20;;;;;;5072959;28;20204;-69
2022/08/03 09:59:11;;;;;;;3.25;2.92;;;31.40;77.40;;;;;;5058969;28;20217;-68
2022/08/03 10:01:40;;;;;;;7.38;3.05;;;31.60;75.80;;;;;;5072493;28;20201;-66
2022/08/03 10:04:12;;;;;;;5.05;2.90;;;31.70;74.60;;;;;;5053343;28;20225;-67
2022/08/03 10:06:39;;;;;;;3.45;2.78;;;31.80;73.40;;;;;;5058820;28;20193;-66
2022/08/03 10:09:08;;;;;;;3.75;2.17;;;31.90;71.90;;;;;;5072580;28;20579;-67
2022/08/03 10:11:35;;;;;;;3.67;2.53;;;32.00;71.40;;;;;;5072224;28;20219;-66
2022/08/03 10:14:05;;;;;;;3.80;2.38;;;32.10;71.30;;;;;;5073027;28;20206;-67
2022/08/03 10:16:35;;;;;;;3.17;2.60;;;32.40;70.60;;;;;;5073217;28;20206;-66
2022/08/03 10:19:03;;;;;;;3.72;2.45;;;32.60;68.80;;;;;;5054358;28;20718;-66
2022/08/03 10:21:33;;;;;;;3.63;2.50;;;32.70;68.70;;;;;;5068858;28;20208;-66
2022/08/03 10:24:03;;;;;;;3.63;2.25;;;32.80;67.10;;;;;;5076237;28;20205;-66
2022/08/03 10:26:32;;;;;;;2.42;2.22;;;32.90;65.90;;;;;;5062614;28;20234;-65
2022/08/03 10:29:01;;;;;;;2.65;2.20;;;33.00;64.70;;;;;;5072836;28;20209;-66
2022/08/03 10:31:38;;;;;;;2.50;2.30;;;33.00;63.20;;;;;;5063867;28;20213;-66
2022/08/03 10:34:11;;;;;;;3.65;2.30;;;33.00;62.50;;;;;;5055541;28;20706;-66
2022/08/03 10:36:40;;;;;;;3.55;2.55;;;33.00;62.10;;;;;;5075562;28;20544;-66
2022/08/03 10:39:07;;;;;;;2.55;2.35;;;33.00;61.50;;;;;;5070687;28;20657;-66
2022/08/03 10:41:39;;;;;;;3.58;1.77;;;33.10;61.50;;;;;;5075449;28;20201;-66
2022/08/03 10:44:09;;;;;;;2.90;2.38;;;33.20;61.50;;;;;;5073798;28;20610;-67
2022/08/03 10:46:39;;;;;;;2.55;2.35;;;33.40;60.20;;;;;;5064336;28;20569;-66
2022/08/03 10:49:08;;;;;;;2.50;2.25;;;33.60;59.50;;;;;;5060406;28;20217;-67
2022/08/03 10:51:35;;;;;;;2.83;1.83;;;33.70;59.10;;;;;;5068007;28;20202;-68
2022/08/03 10:54:02;;;;;;;2.45;2.15;;;33.50;58.30;;;;;;5061094;28;20697;-66
2022/08/03 10:59:58;;;;;;;3.78;2.47;;;32.80;58.40;;;;;;5059904;28;20204;-67
2022/08/03 11:03:05;;;;;;;3.28;2.10;;;32.70;59.60;;;;;;5075398;28;20653;-67
2022/08/03 11:05:33;;;;;;;3.08;2.53;;;32.60;60.30;;;;;;5075459;28;20661;-67
2022/08/03 11:08:29;;;;;;;3.08;2.22;;;32.70;60.60;;;;;;5058681;28;20206;-66
2022/08/03 11:10:58;;;;;;;4.63;2.67;;;32.70;60.80;;;;;;5065915;28;20569;-70
2022/08/03 11:13:29;;;;;;;2.55;2.33;;;32.90;61.20;;;;;;5074393;28;20205;-66
2022/08/03 11:15:58;;;;;;;4.10;2.67;;;33.20;60.50;;;;;;5075571;28;20804;-68
2022/08/03 11:18:26;;;;;;;4.47;2.67;;;33.20;59.50;;;;;;5057852;28;20599;-68
2022/08/03 11:20:55;;;;;;;3.17;2.88;;;33.20;59.30;;;;;;5074456;28;20229;-67
2022/08/03 11:23:40;;;;;;;5.85;2.25;;;33.20;59.50;;;;;;5075159;28;20240;-67
2022/08/03 11:26:17;;;;;;;5.57;2.63;;;33.20;59.50;;;;;;5042123;28;20260;-66
2022/08/03 11:28:45;;;;;;;2.60;2.40;;;33.50;59.80;;;;;;5051510;28;20206;-65
2022/08/03 11:31:45;;;;;;;4.55;3.03;;;33.70;59.80;;;;;;5066009;28;20630;-66
2022/08/03 11:34:15;;;;;;;3.00;2.78;;;34.00;58.70;;;;;;5073118;28;20233;-67
2022/08/03 11:37:20;;;;;;;5.53;2.80;;;34.00;58.30;;;;;;5074409;28;20228;-67
2022/08/03 11:39:48;;;;;;;3.00;2.70;;;34.20;57.90;;;;;;5074685;28;20255;-66
2022/08/03 11:42:47;;;;;;;5.50;2.88;;;34.30;57.80;;;;;;5059773;28;20210;-68
2022/08/03 11:45:13;;;;;;;3.33;2.17;;;34.40;57.70;;;;;;5063967;28;20592;-68
2022/08/03 11:47:41;;;;;;;4.78;3.42;;;34.50;57.40;;;;;;5074026;28;20259;-67
2022/08/03 11:50:10;;;;;;;3.53;2.30;;;34.50;56.30;;;;;;5064934;28;20213;-69
2022/08/03 11:52:41;;;;;;;5.55;3.17;;;34.40;56.50;;;;;;5059017;28;20214;-68
2022/08/03 11:55:19;;;;;;;2.65;2.45;;;34.40;57.00;;;;;;5053369;28;20256;-66
2022/08/03 11:57:46;;;;;;;2.97;2.38;;;34.30;57.10;;;;;;5042706;28;20583;-67
2022/08/03 12:00:24;;;;;;;2.75;2.55;;;34.20;56.60;;;;;;5062424;28;20205;-68
2022/08/03 12:03:03;;;;;;;3.28;2.22;;;34.30;56.50;;;;;;5061309;28;20198;-68
2022/08/03 12:05:43;;;;;;;3.45;2.65;;;34.30;55.80;;;;;;5059701;28;20210;-67
2022/08/03 12:08:11;;;;;;;5.45;2.95;;;34.20;55.70;;;;;;5052135;28;20201;-68
2022/08/03 12:10:39;;;;;;;2.88;2.55;;;34.10;55.50;;;;;;5054010;28;20694;-67
2022/08/03 12:13:08;;;;;;;2.97;2.72;;;34.10;55.70;;;;;;5052512;28;20217;-67
2022/08/03 12:15:37;;;;;;;3.28;2.90;;;34.00;56.00;;;;;;5050842;28;20238;-67
2022/08/03 12:18:13;;;;;;;3.10;2.83;;;34.00;56.20;;;;;;5054209;28;20217;-67
2022/08/03 12:20:41;;;;;;;4.05;3.03;;;34.10;56.40;;;;;;5044433;28;20305;-68
2022/08/03 12:23:09;;;;;;;3.60;2.20;;;34.30;55.80;;;;;;5052961;28;20263;-67
2022/08/03 12:25:37;;;;;;;2.95;2.75;;;34.30;55.10;;;;;;5052972;28;20248;-68
2022/08/03 12:28:18;;;;;;;4.75;2.83;;;34.10;54.80;;;;;;5053144;28;20202;-67
2022/08/03 12:30:47;;;;;;;6.47;3.22;;;34.00;55.60;;;;;;5050277;28;20634;-66
2022/08/03 12:33:22;;;;;;;3.97;2.63;;;34.00;56.20;;;;;;5064032;28;20235;-67
2022/08/03 12:36:05;;;;;;;4.13;3.20;;;33.90;56.30;;;;;;5064184;28;20215;-68
2022/08/03 12:38:33;;;;;;;7.15;3.65;;;33.80;55.50;;;;;;5072866;28;20205;-68
2022/08/03 12:41:05;;;;;;;3.25;2.95;;;33.80;55.80;;;;;;5073558;28;20574;-70
2022/08/03 12:43:32;;;;;;;7.25;3.33;;;33.80;56.50;;;;;;5073824;28;20213;-67
2022/08/03 12:46:14;;;;;;;2.95;2.70;;;33.60;56.00;;;;;;5067652;28;20197;-71
2022/08/03 12:49:15;;;;;;;4.97;2.40;;;33.30;56.40;;;;;;5048110;28;20205;-69
2022/08/03 12:51:58;;;;;;;3.28;3.00;;;33.00;57.20;;;;;;4982791;28;20203;-70
2022/08/03 12:54:28;;;;;;;6.15;3.25;;;33.20;57.30;;;;;;4989307;28;20294;-71
2022/08/03 12:56:58;;;;;;;4.53;3.65;;;33.20;57.00;;;;;;5027265;28;20245;-70
2022/08/03 12:59:26;;;;;;;4.22;3.05;;;33.20;56.90;;;;;;5060496;28;20198;-69
2022/08/03 13:01:53;;;;;;;4.22;3.15;;;33.00;57.30;;;;;;5053565;28;20256;-69
2022/08/03 13:04:26;;;;;;;4.97;3.60;;;32.90;57.90;;;;;;5053145;28;20576;-69
2022/08/03 13:06:58;;;;;;;3.67;3.38;;;32.70;58.20;;;;;;5052143;28;20528;-69